Weather Data

Pearl Creek Farm: 8878 N Farm Road 75, Walnut Grove MO 65770

<== Previous Day (Friday 18 Mar 2011) | Next Day (Sunday 20 Mar 2011) ==>

Summary Precipitation Data For Saturday 19 March 2011

ElementValueUnits
PrecipitationT
NotesNothing in rain gauge but it sprinkled steadily for several minutes in the late afternoon (3-4pm). Had I not been home, I wouldn't have noticed at all.
SourcePearl Creek Farm

Summary Temperature Data For Saturday 19 March 2011

ElementValueUnits
High Temperature57 oF
Low Temperature47 oF
Average Temperature50 oF
High Humidity97 %
Low Humidity45 %
Average Humidity69 %
SourceSpringfield-Branson National Airport (SGF)

Detail Temperature Data For Saturday 19 March 2011

Date / TimeTemp (F)RH (%)Dew Pt (F)Report Date / TimeSource
2011-03-19 12:52:00 57 47 37.0 2017-12-29 18:34:27.514434 Springfield-Branson National Airport (SGF)
2011-03-19 13:52:00 54 62 41.0 2017-12-29 18:34:27.514434 Springfield-Branson National Airport (SGF)
2011-03-19 14:52:00 50 83 45.0 2017-12-29 18:34:27.514434 Springfield-Branson National Airport (SGF)
2011-03-19 15:52:00 50 89 47.0 2017-12-29 18:34:27.514434 Springfield-Branson National Airport (SGF)
2011-03-19 16:52:00 47 97 46.0 2017-12-29 18:34:27.514434 Springfield-Branson National Airport (SGF)
2011-03-19 17:52:00 47 97 46.0 2017-12-29 18:34:27.514434 Springfield-Branson National Airport (SGF)
2011-03-19 00:52:00 50 59 36.0 2017-12-29 18:34:27.514434 Springfield-Branson National Airport (SGF)
2011-03-19 01:52:00 50 59 36.0 2017-12-29 18:34:27.514434 Springfield-Branson National Airport (SGF)
2011-03-19 02:52:00 49 61 36.0 2017-12-29 18:34:27.514434 Springfield-Branson National Airport (SGF)
2011-03-19 03:52:00 49 61 36.0 2017-12-29 18:34:27.514434 Springfield-Branson National Airport (SGF)
2011-03-19 07:52:00 49 59 35.0 2017-12-29 18:34:27.514434 Springfield-Branson National Airport (SGF)
2011-03-19 08:52:00 50 54 34.0 2017-12-29 18:34:27.514434 Springfield-Branson National Airport (SGF)
2011-03-19 11:52:00 57 47 37.0 2017-12-29 18:34:27.514434 Springfield-Branson National Airport (SGF)
2011-03-19 18:52:00 48 89 45.0 2017-12-29 18:34:27.514434 Springfield-Branson National Airport (SGF)
2011-03-19 19:52:00 49 83 44.0 2017-12-29 18:34:27.514434 Springfield-Branson National Airport (SGF)
2011-03-19 20:52:00 49 83 44.0 2017-12-29 18:34:27.514434 Springfield-Branson National Airport (SGF)
2011-03-19 04:52:00 47 63 35.0 2017-12-29 18:34:27.514434 Springfield-Branson National Airport (SGF)
2011-03-19 05:52:00 47 63 35.0 2017-12-29 18:34:27.514434 Springfield-Branson National Airport (SGF)
2011-03-19 06:52:00 47 63 35.0 2017-12-29 18:34:27.514434 Springfield-Branson National Airport (SGF)
2011-03-19 09:52:00 53 48 34.0 2017-12-29 18:34:27.514434 Springfield-Branson National Airport (SGF)
2011-03-19 10:52:00 57 45 36.0 2017-12-29 18:34:27.514434 Springfield-Branson National Airport (SGF)
2011-03-19 21:52:00 50 80 44.0 2017-12-29 18:34:27.514434 Springfield-Branson National Airport (SGF)
2011-03-19 22:52:00 51 77 44.0 2017-12-29 18:34:27.514434 Springfield-Branson National Airport (SGF)
2011-03-19 23:52:00 52 77 45.0 2017-12-29 18:34:27.514434 Springfield-Branson National Airport (SGF)

A total of 24 rows are displayed.